sensor_id;sensor_type;location;lat;lon;timestamp;pressure;altitude;pressure_sealevel;temperature;humidity
64078;BME280;51039;49.696;10.808;2022-07-23T00:02:21;98360.84;;;21.91;55.47
64078;BME280;51039;49.696;10.808;2022-07-23T00:04:46;98358.72;;;21.88;56.21
64078;BME280;51039;49.696;10.808;2022-07-23T00:07:11;98357.09;;;21.87;55.88
64078;BME280;51039;49.696;10.808;2022-07-23T00:09:37;98344.69;;;21.86;55.71
64078;BME280;51039;49.696;10.808;2022-07-23T00:12:02;98344.72;;;21.81;57.27
64078;BME280;51039;49.696;10.808;2022-07-23T00:14:28;98345.06;;;21.69;57.07
64078;BME280;51039;49.696;10.808;2022-07-23T00:16:53;98346.91;;;21.69;56.87
64078;BME280;51039;49.696;10.808;2022-07-23T00:19:18;98342.09;;;21.66;56.96
64078;BME280;51039;49.696;10.808;2022-07-23T00:21:44;98346.97;;;21.53;57.32
64078;BME280;51039;49.696;10.808;2022-07-23T00:24:09;98345.66;;;21.51;57.61
64078;BME280;51039;49.696;10.808;2022-07-23T00:26:34;98342.13;;;21.55;57.73
64078;BME280;51039;49.696;10.808;2022-07-23T00:29:00;98340.53;;;21.54;58.01
64078;BME280;51039;49.696;10.808;2022-07-23T00:31:25;98342.94;;;21.56;57.96
64078;BME280;51039;49.696;10.808;2022-07-23T00:33:50;98341.06;;;21.51;58.23
64078;BME280;51039;49.696;10.808;2022-07-23T00:36:17;98336.22;;;21.48;58.63
64078;BME280;51039;49.696;10.808;2022-07-23T00:38:42;98335.69;;;21.41;58.95
64078;BME280;51039;49.696;10.808;2022-07-23T00:41:08;98326.28;;;21.28;60.04
64078;BME280;51039;49.696;10.808;2022-07-23T00:43:33;98321.97;;;21.22;60.07
64078;BME280;51039;49.696;10.808;2022-07-23T00:45:58;98320.38;;;21.21;60.29
64078;BME280;51039;49.696;10.808;2022-07-23T00:48:24;98316.91;;;21.15;61.09
64078;BME280;51039;49.696;10.808;2022-07-23T00:50:49;98297.81;;;21.02;61.72
64078;BME280;51039;49.696;10.808;2022-07-23T00:53:14;98302.41;;;20.96;61.02
64078;BME280;51039;49.696;10.808;2022-07-23T00:55:40;98292.16;;;20.98;60.92
64078;BME280;51039;49.696;10.808;2022-07-23T00:58:06;98288.38;;;20.99;60.94
64078;BME280;51039;49.696;10.808;2022-07-23T01:00:33;98281.66;;;20.96;60.54
64078;BME280;51039;49.696;10.808;2022-07-23T01:02:58;98272.25;;;20.94;60.83
64078;BME280;51039;49.696;10.808;2022-07-23T01:05:24;98267.66;;;20.94;60.48
64078;BME280;51039;49.696;10.808;2022-07-23T01:07:49;98274.38;;;20.92;60.30
64078;BME280;51039;49.696;10.808;2022-07-23T01:10:15;98257.41;;;20.91;60.53
64078;BME280;51039;49.696;10.808;2022-07-23T01:13:06;98270.63;;;20.88;60.54
64078;BME280;51039;49.696;10.808;2022-07-23T01:15:35;98275.47;;;20.86;60.74
64078;BME280;51039;49.696;10.808;2022-07-23T01:18:02;98278.19;;;20.81;61.43
64078;BME280;51039;49.696;10.808;2022-07-23T01:20:29;98276.03;;;20.77;60.74
64078;BME280;51039;49.696;10.808;2022-07-23T01:22:55;98271.72;;;20.87;60.28
64078;BME280;51039;49.696;10.808;2022-07-23T01:25:21;98274.66;;;20.85;61.02
64078;BME280;51039;49.696;10.808;2022-07-23T01:27:47;98275.19;;;20.87;61.39
64078;BME280;51039;49.696;10.808;2022-07-23T01:30:12;98272.81;;;20.81;62.23
64078;BME280;51039;49.696;10.808;2022-07-23T01:32:38;98278.44;;;20.84;62.26
64078;BME280;51039;49.696;10.808;2022-07-23T01:35:04;98267.16;;;20.77;62.54
64078;BME280;51039;49.696;10.808;2022-07-23T01:37:30;98269.03;;;20.66;63.23
64078;BME280;51039;49.696;10.808;2022-07-23T01:39:55;98274.41;;;20.66;63.17
64078;BME280;51039;49.696;10.808;2022-07-23T01:42:21;98262.84;;;20.66;63.25
64078;BME280;51039;49.696;10.808;2022-07-23T01:44:46;98269.56;;;20.58;63.44
64078;BME280;51039;49.696;10.808;2022-07-23T01:47:12;98274.94;;;20.58;63.58
64078;BME280;51039;49.696;10.808;2022-07-23T01:49:37;98276.31;;;20.61;63.95
64078;BME280;51039;49.696;10.808;2022-07-23T01:52:02;98276.03;;;20.62;63.71
64078;BME280;51039;49.696;10.808;2022-07-23T01:54:32;98272.28;;;20.63;63.93
64078;BME280;51039;49.696;10.808;2022-07-23T01:56:58;98289.75;;;20.61;64.01
64078;BME280;51039;49.696;10.808;2022-07-23T01:59:26;98303.19;;;20.50;64.96
64078;BME280;51039;49.696;10.808;2022-07-23T02:01:52;98307.47;;;20.51;64.43
64078;BME280;51039;49.696;10.808;2022-07-23T02:04:18;98309.91;;;20.53;64.51
64078;BME280;51039;49.696;10.808;2022-07-23T02:06:44;98311.53;;;20.54;64.74
64078;BME280;51039;49.696;10.808;2022-07-23T02:09:10;98305.59;;;20.57;64.73
64078;BME280;51039;49.696;10.808;2022-07-23T02:11:35;98293.25;;;20.61;64.78
64078;BME280;51039;49.696;10.808;2022-07-23T02:14:01;98293.25;;;20.56;65.91
64078;BME280;51039;49.696;10.808;2022-07-23T02:16:27;98299.69;;;20.45;65.64
64078;BME280;51039;49.696;10.808;2022-07-23T02:18:52;98295.38;;;20.44;65.62
64078;BME280;51039;49.696;10.808;2022-07-23T02:21:17;98288.91;;;20.39;65.80
64078;BME280;51039;49.696;10.808;2022-07-23T02:23:43;98285.97;;;20.46;65.06
64078;BME280;51039;49.696;10.808;2022-07-23T02:26:08;98295.94;;;20.40;65.14
64078;BME280;51039;49.696;10.808;2022-07-23T02:28:33;98277.63;;;20.37;64.59
64078;BME280;51039;49.696;10.808;2022-07-23T02:30:59;98274.38;;;20.20;64.17
64078;BME280;51039;49.696;10.808;2022-07-23T02:33:24;98268.44;;;20.03;64.53
64078;BME280;51039;49.696;10.808;2022-07-23T02:35:50;98259.59;;;20.02;64.60
64078;BME280;51039;49.696;10.808;2022-07-23T02:38:15;98260.13;;;20.09;64.66
64078;BME280;51039;49.696;10.808;2022-07-23T02:40:40;98264.44;;;20.10;64.39
64078;BME280;51039;49.696;10.808;2022-07-23T02:43:06;98253.69;;;20.15;64.98
64078;BME280;51039;49.696;10.808;2022-07-23T02:45:31;98241.31;;;20.14;65.00
64078;BME280;51039;49.696;10.808;2022-07-23T02:47:56;98232.16;;;20.15;65.27
64078;BME280;51039;49.696;10.808;2022-07-23T02:50:22;98233.22;;;20.14;65.09
64078;BME280;51039;49.696;10.808;2022-07-23T02:52:48;98234.31;;;20.08;65.55
64078;BME280;51039;49.696;10.808;2022-07-23T02:55:13;98231.31;;;19.99;65.48
64078;BME280;51039;49.696;10.808;2022-07-23T02:57:39;98235.38;;;20.02;65.13
64078;BME280;51039;49.696;10.808;2022-07-23T03:00:04;98233.22;;;20.04;65.05
64078;BME280;51039;49.696;10.808;2022-07-23T03:02:31;98248.53;;;19.88;65.85
64078;BME280;51039;49.696;10.808;2022-07-23T03:04:57;98243.16;;;19.93;65.24
64078;BME280;51039;49.696;10.808;2022-07-23T03:07:22;98247.72;;;19.88;65.58
64078;BME280;51039;49.696;10.808;2022-07-23T03:09:48;98237.50;;;19.79;67.11
64078;BME280;51039;49.696;10.808;2022-07-23T03:12:13;98236.44;;;19.80;67.08
64078;BME280;51039;49.696;10.808;2022-07-23T03:14:39;98239.88;;;19.71;67.47
64078;BME280;51039;49.696;10.808;2022-07-23T03:17:05;98247.34;;;19.58;67.71
64078;BME280;51039;49.696;10.808;2022-07-23T03:19:30;98249.47;;;19.51;67.80
64078;BME280;51039;49.696;10.808;2022-07-23T03:21:56;98248.13;;;19.49;67.64
64078;BME280;51039;49.696;10.808;2022-07-23T03:24:21;98249.75;;;19.50;67.87
64078;BME280;51039;49.696;10.808;2022-07-23T03:26:48;98249.47;;;19.51;67.49
64078;BME280;51039;49.696;10.808;2022-07-23T03:29:14;98250.00;;;19.53;67.68
64078;BME280;51039;49.696;10.808;2022-07-23T03:31:39;98250.56;;;19.50;67.92
64078;BME280;51039;49.696;10.808;2022-07-23T03:34:04;98256.19;;;19.49;68.49
64078;BME280;51039;49.696;10.808;2022-07-23T03:36:30;98260.22;;;19.46;68.37
64078;BME280;51039;49.696;10.808;2022-07-23T03:38:55;98254.00;;;19.46;68.15
64078;BME280;51039;49.696;10.808;2022-07-23T03:41:21;98266.09;;;19.43;68.03
64078;BME280;51039;49.696;10.808;2022-07-23T03:43:46;98264.66;;;19.20;69.12
64078;BME280;51039;49.696;10.808;2022-07-23T03:46:12;98260.09;;;19.20;69.12
64078;BME280;51039;49.696;10.808;2022-07-23T03:48:37;98257.44;;;19.26;69.08
64078;BME280;51039;49.696;10.808;2022-07-23T03:51:03;98266.56;;;19.30;69.01
64078;BME280;51039;49.696;10.808;2022-07-23T03:53:28;98258.53;;;19.25;68.88
64078;BME280;51039;49.696;10.808;2022-07-23T03:55:54;98264.16;;;19.23;69.12
64078;BME280;51039;49.696;10.808;2022-07-23T03:58:19;98267.03;;;19.16;69.30
64078;BME280;51039;49.696;10.808;2022-07-23T04:00:45;98275.94;;;19.22;68.80
64078;BME280;51039;49.696;10.808;2022-07-23T04:03:10;98274.06;;;19.22;69.00
64078;BME280;51039;49.696;10.808;2022-07-23T04:05:35;98274.59;;;19.19;69.13
64078;BME280;51039;49.696;10.808;2022-07-23T04:08:01;98273.78;;;19.19;69.36
64078;BME280;51039;49.696;10.808;2022-07-23T04:10:26;98275.34;;;19.15;69.71
64078;BME280;51039;49.696;10.808;2022-07-23T04:12:51;98281.06;;;19.23;69.48
64078;BME280;51039;49.696;10.808;2022-07-23T04:15:17;98286.22;;;19.35;69.20
64078;BME280;51039;49.696;10.808;2022-07-23T04:17:42;98293.00;;;19.48;69.20
64078;BME280;51039;49.696;10.808;2022-07-23T04:20:08;98297.88;;;19.61;68.75
64078;BME280;51039;49.696;10.808;2022-07-23T04:22:35;98297.16;;;19.81;68.03
64078;BME280;51039;49.696;10.808;2022-07-23T04:25:00;98301.50;;;20.03;66.69
64078;BME280;51039;49.696;10.808;2022-07-23T04:27:26;98298.31;;;20.22;66.20
64078;BME280;51039;49.696;10.808;2022-07-23T04:29:51;98301.06;;;20.57;64.69
64078;BME280;51039;49.696;10.808;2022-07-23T04:32:16;98300.81;;;21.70;60.88
64078;BME280;51039;49.696;10.808;2022-07-23T04:34:41;98291.19;;;22.83;58.04
64078;BME280;51039;49.696;10.808;2022-07-23T04:37:07;98290.81;;;23.67;55.93
64078;BME280;51039;49.696;10.808;2022-07-23T04:39:32;98293.84;;;23.84;55.18
64078;BME280;51039;49.696;10.808;2022-07-23T04:41:57;98285.38;;;24.29;54.34
64078;BME280;51039;49.696;10.808;2022-07-23T04:44:23;98289.84;;;23.82;55.43
64078;BME280;51039;49.696;10.808;2022-07-23T04:46:48;98295.31;;;23.28;57.44
64078;BME280;51039;49.696;10.808;2022-07-23T04:49:14;98293.78;;;22.24;59.39
64078;BME280;51039;49.696;10.808;2022-07-23T04:51:39;98288.25;;;22.79;57.62
64078;BME280;51039;49.696;10.808;2022-07-23T04:54:04;98304.03;;;24.12;53.60
64078;BME280;51039;49.696;10.808;2022-07-23T04:56:30;98293.25;;;23.44;55.11
64078;BME280;51039;49.696;10.808;2022-07-23T04:58:55;98291.34;;;22.91;56.18
64078;BME280;51039;49.696;10.808;2022-07-23T05:01:20;98300.34;;;22.52;57.31
64078;BME280;51039;49.696;10.808;2022-07-23T05:03:46;98302.03;;;22.43;58.25
64078;BME280;51039;49.696;10.808;2022-07-23T05:06:13;98306.38;;;22.39;58.13
64078;BME280;51039;49.696;10.808;2022-07-23T05:08:38;98305.78;;;23.59;54.70
64078;BME280;51039;49.696;10.808;2022-07-23T05:11:04;98310.69;;;24.71;51.69
64078;BME280;51039;49.696;10.808;2022-07-23T05:13:29;98306.88;;;25.19;50.62
64078;BME280;51039;49.696;10.808;2022-07-23T05:15:55;98318.88;;;26.46;47.89
64078;BME280;51039;49.696;10.808;2022-07-23T05:18:20;98321.41;;;27.99;44.35
64078;BME280;51039;49.696;10.808;2022-07-23T05:20:45;98326.66;;;28.91;42.50
64078;BME280;51039;49.696;10.808;2022-07-23T05:23:11;98329.94;;;29.62;40.81
64078;BME280;51039;49.696;10.808;2022-07-23T05:25:36;98330.97;;;30.29;39.45
64078;BME280;51039;49.696;10.808;2022-07-23T05:28:01;98336.97;;;28.42;43.98
64078;BME280;51039;49.696;10.808;2022-07-23T05:30:27;98325.03;;;27.28;46.56
64078;BME280;51039;49.696;10.808;2022-07-23T05:32:52;98332.88;;;27.78;46.19
64078;BME280;51039;49.696;10.808;2022-07-23T05:35:18;98335.03;;;26.88;48.22
64078;BME280;51039;49.696;10.808;2022-07-23T05:37:43;98331.25;;;26.75;48.00
64078;BME280;51039;49.696;10.808;2022-07-23T05:40:09;98335.25;;;26.55;48.18
64078;BME280;51039;49.696;10.808;2022-07-23T05:42:35;98340.25;;;26.39;48.03
64078;BME280;51039;49.696;10.808;2022-07-23T05:45:02;98333.59;;;28.10;45.03
64078;BME280;51039;49.696;10.808;2022-07-23T05:47:28;98333.66;;;27.30;46.43
64078;BME280;51039;49.696;10.808;2022-07-23T05:49:54;98355.44;;;26.40;48.42
64078;BME280;51039;49.696;10.808;2022-07-23T05:52:19;98354.53;;;26.08;49.14
64078;BME280;51039;49.696;10.808;2022-07-23T05:54:44;98362.56;;;25.85;51.33
64078;BME280;51039;49.696;10.808;2022-07-23T05:57:10;98363.97;;;25.83;51.91
64078;BME280;51039;49.696;10.808;2022-07-23T05:59:35;98369.41;;;25.69;51.23
64078;BME280;51039;49.696;10.808;2022-07-23T06:02:00;98374.22;;;25.58;51.67
64078;BME280;51039;49.696;10.808;2022-07-23T06:04:25;98386.75;;;25.26;52.14
64078;BME280;51039;49.696;10.808;2022-07-23T06:06:51;98382.81;;;25.33;52.76
64078;BME280;51039;49.696;10.808;2022-07-23T06:09:16;98387.81;;;25.12;53.34
64078;BME280;51039;49.696;10.808;2022-07-23T06:11:42;98392.28;;;25.35;52.83
64078;BME280;51039;49.696;10.808;2022-07-23T06:14:07;98392.22;;;29.04;43.88
64078;BME280;51039;49.696;10.808;2022-07-23T06:16:32;98397.31;;;31.72;37.56
64078;BME280;51039;49.696;10.808;2022-07-23T06:18:58;98388.75;;;33.51;33.97
64078;BME280;51039;49.696;10.808;2022-07-23T06:21:23;98385.09;;;33.15;34.22
64078;BME280;51039;49.696;10.808;2022-07-23T06:23:48;98392.22;;;33.04;33.87
64078;BME280;51039;49.696;10.808;2022-07-23T06:26:14;98390.16;;;32.85;34.28
64078;BME280;51039;49.696;10.808;2022-07-23T06:28:39;98389.06;;;32.74;34.49
64078;BME280;51039;49.696;10.808;2022-07-23T06:31:04;98384.94;;;32.39;35.07
64078;BME280;51039;49.696;10.808;2022-07-23T06:33:30;98401.50;;;30.99;38.15
64078;BME280;51039;49.696;10.808;2022-07-23T06:35:55;98392.53;;;32.86;34.23
64078;BME280;51039;49.696;10.808;2022-07-23T06:38:20;98410.66;;;31.98;36.17
64078;BME280;51039;49.696;10.808;2022-07-23T06:40:46;98404.41;;;32.09;35.61
64078;BME280;51039;49.696;10.808;2022-07-23T06:43:11;98405.50;;;33.02;33.50
64078;BME280;51039;49.696;10.808;2022-07-23T06:45:36;98415.59;;;34.06;32.90
64078;BME280;51039;49.696;10.808;2022-07-23T06:48:02;98402.63;;;32.29;36.34
64078;BME280;51039;49.696;10.808;2022-07-23T06:50:28;98424.84;;;30.96;38.61
64078;BME280;51039;49.696;10.808;2022-07-23T06:52:53;98426.63;;;29.99;41.25
64078;BME280;51039;49.696;10.808;2022-07-23T06:55:19;98416.56;;;30.12;40.35
64078;BME280;51039;49.696;10.808;2022-07-23T06:57:44;98425.78;;;28.95;42.93
64078;BME280;51039;49.696;10.808;2022-07-23T07:00:10;98427.03;;;28.37;44.41
64078;BME280;51039;49.696;10.808;2022-07-23T07:02:35;98426.84;;;27.76;46.11
64078;BME280;51039;49.696;10.808;2022-07-23T07:05:01;98433.47;;;26.84;48.29
64078;BME280;51039;49.696;10.808;2022-07-23T07:07:27;98443.66;;;26.29;48.65
64078;BME280;51039;49.696;10.808;2022-07-23T07:09:52;98441.75;;;25.74;50.47
64078;BME280;51039;49.696;10.808;2022-07-23T07:12:17;98446.09;;;25.09;51.30
64078;BME280;51039;49.696;10.808;2022-07-23T07:14:43;98446.28;;;24.80;53.17
64078;BME280;51039;49.696;10.808;2022-07-23T07:17:08;98459.91;;;24.75;54.07
64078;BME280;51039;49.696;10.808;2022-07-23T07:19:35;98471.22;;;24.39;56.85
64078;BME280;51039;49.696;10.808;2022-07-23T07:22:01;98473.13;;;23.90;59.16
64078;BME280;51039;49.696;10.808;2022-07-23T07:24:26;98486.78;;;23.16;61.64
64078;BME280;51039;49.696;10.808;2022-07-23T07:26:52;98487.56;;;22.72;63.37
64078;BME280;51039;49.696;10.808;2022-07-23T07:29:18;98487.47;;;22.38;65.71
64078;BME280;51039;49.696;10.808;2022-07-23T07:31:43;98483.28;;;22.06;66.81
64078;BME280;51039;49.696;10.808;2022-07-23T07:34:08;98494.09;;;21.90;68.48
64078;BME280;51039;49.696;10.808;2022-07-23T07:36:34;98505.47;;;21.56;70.05
64078;BME280;51039;49.696;10.808;2022-07-23T07:39:02;98485.78;;;21.46;71.62
64078;BME280;51039;49.696;10.808;2022-07-23T07:41:31;98506.25;;;21.36;71.98
64078;BME280;51039;49.696;10.808;2022-07-23T07:43:57;98500.38;;;21.50;72.14
64078;BME280;51039;49.696;10.808;2022-07-23T07:46:22;98502.75;;;21.72;71.89
64078;BME280;51039;49.696;10.808;2022-07-23T07:48:49;98504.31;;;21.99;71.21
64078;BME280;51039;49.696;10.808;2022-07-23T07:51:15;98511.88;;;21.86;71.55
64078;BME280;51039;49.696;10.808;2022-07-23T07:53:40;98502.50;;;21.73;71.83
64078;BME280;51039;49.696;10.808;2022-07-23T07:56:05;98498.69;;;21.85;71.55
64078;BME280;51039;49.696;10.808;2022-07-23T07:58:31;98497.56;;;22.06;71.14
64078;BME280;51039;49.696;10.808;2022-07-23T08:00:56;98496.50;;;21.97;71.26
64078;BME280;51039;49.696;10.808;2022-07-23T08:03:21;98514.81;;;22.10;70.92
64078;BME280;51039;49.696;10.808;2022-07-23T08:05:47;98513.97;;;22.15;71.19
64078;BME280;51039;49.696;10.808;2022-07-23T08:08:12;98503.19;;;22.15;71.60
64078;BME280;51039;49.696;10.808;2022-07-23T08:10:39;98503.44;;;22.19;71.39
64078;BME280;51039;49.696;10.808;2022-07-23T08:13:05;98504.78;;;22.26;71.18
64078;BME280;51039;49.696;10.808;2022-07-23T08:15:31;98506.38;;;22.32;71.19
64078;BME280;51039;49.696;10.808;2022-07-23T08:17:56;98507.63;;;22.55;70.41
64078;BME280;51039;49.696;10.808;2022-07-23T08:20:23;98504.03;;;22.76;70.10
64078;BME280;51039;49.696;10.808;2022-07-23T08:22:51;98508.72;;;22.54;70.46
64078;BME280;51039;49.696;10.808;2022-07-23T08:25:40;98515.94;;;22.69;70.81
64078;BME280;51039;49.696;10.808;2022-07-23T08:28:08;98511.16;;;23.01;69.45
64078;BME280;51039;49.696;10.808;2022-07-23T08:30:36;98521.38;;;23.48;67.60
64078;BME280;51039;49.696;10.808;2022-07-23T08:33:07;98513.06;;;23.69;68.00
64078;BME280;51039;49.696;10.808;2022-07-23T08:35:39;98498.16;;;24.25;65.33
64078;BME280;51039;49.696;10.808;2022-07-23T08:38:08;98498.78;;;24.84;63.93
64078;BME280;51039;49.696;10.808;2022-07-23T08:40:38;98512.50;;;25.12;62.42
64078;BME280;51039;49.696;10.808;2022-07-23T08:43:07;98521.03;;;25.71;61.38
64078;BME280;51039;49.696;10.808;2022-07-23T08:45:35;98525.22;;;26.10;59.35
64078;BME280;51039;49.696;10.808;2022-07-23T08:48:03;98529.44;;;26.02;58.83
64078;BME280;51039;49.696;10.808;2022-07-23T08:50:32;98533.28;;;26.29;58.20
64078;BME280;51039;49.696;10.808;2022-07-23T08:52:59;98537.69;;;26.38;57.73
64078;BME280;51039;49.696;10.808;2022-07-23T08:55:25;98530.47;;;26.20;58.36
64078;BME280;51039;49.696;10.808;2022-07-23T08:57:51;98538.50;;;26.25;58.59
64078;BME280;51039;49.696;10.808;2022-07-23T09:00:18;98544.34;;;26.74;57.01
64078;BME280;51039;49.696;10.808;2022-07-23T09:02:45;98539.81;;;26.83;56.02
64078;BME280;51039;49.696;10.808;2022-07-23T09:05:12;98535.78;;;28.25;52.23
64078;BME280;51039;49.696;10.808;2022-07-23T09:08:24;98549.59;;;29.73;49.20
64078;BME280;51039;49.696;10.808;2022-07-23T09:10:28;98547.88;;;31.05;46.19
64078;BME280;51039;49.696;10.808;2022-07-23T09:12:53;98549.50;;;30.46;46.42
64078;BME280;51039;49.696;10.808;2022-07-23T09:15:19;98554.28;;;29.55;48.99
64078;BME280;51039;49.696;10.808;2022-07-23T09:17:44;98560.38;;;28.42;51.68
64078;BME280;51039;49.696;10.808;2022-07-23T09:20:10;98564.50;;;28.31;52.35
64078;BME280;51039;49.696;10.808;2022-07-23T09:22:38;98562.47;;;28.45;51.49
64078;BME280;51039;49.696;10.808;2022-07-23T09:25:12;98561.94;;;28.26;51.66
64078;BME280;51039;49.696;10.808;2022-07-23T09:27:59;98566.13;;;28.32;51.60
64078;BME280;51039;49.696;10.808;2022-07-23T09:30:29;98562.13;;;28.95;50.77
64078;BME280;51039;49.696;10.808;2022-07-23T09:35:46;98569.97;;;27.99;51.58
64078;BME280;51039;49.696;10.808;2022-07-23T09:38:20;98567.25;;;27.77;51.70
64078;BME280;51039;49.696;10.808;2022-07-23T09:40:47;98567.91;;;28.05;51.59
64078;BME280;51039;49.696;10.808;2022-07-23T09:43:31;98568.19;;;27.95;51.74
64078;BME280;51039;49.696;10.808;2022-07-23T09:48:44;98563.16;;;27.66;50.89
64078;BME280;51039;49.696;10.808;2022-07-23T09:51:10;98565.72;;;27.62;50.36
64078;BME280;51039;49.696;10.808;2022-07-23T09:53:35;98556.16;;;27.73;51.13
64078;BME280;51039;49.696;10.808;2022-07-23T09:56:01;98566.94;;;27.78;50.92
64078;BME280;51039;49.696;10.808;2022-07-23T09:58:27;98559.53;;;27.93;50.52
64078;BME280;51039;49.696;10.808;2022-07-23T10:00:54;98560.03;;;27.95;50.11
64078;BME280;51039;49.696;10.808;2022-07-23T10:03:20;98567.44;;;27.80;50.72
64078;BME280;51039;49.696;10.808;2022-07-23T10:05:48;98562.78;;;28.04;49.63
64078;BME280;51039;49.696;10.808;2022-07-23T10:08:16;98564.81;;;27.89;50.18
64078;BME280;51039;49.696;10.808;2022-07-23T10:10:43;98561.69;;;28.45;48.59
64078;BME280;51039;49.696;10.808;2022-07-23T10:13:11;98563.03;;;28.65;48.11
64078;BME280;51039;49.696;10.808;2022-07-23T10:15:56;98569.31;;;28.74;48.63
64078;BME280;51039;49.696;10.808;2022-07-23T10:18:22;98565.69;;;29.13;47.10
64078;BME280;51039;49.696;10.808;2022-07-23T10:20:48;98569.19;;;29.66;45.68
64078;BME280;51039;49.696;10.808;2022-07-23T10:23:25;98562.00;;;29.18;45.86
64078;BME280;51039;49.696;10.808;2022-07-23T10:26:03;98569.22;;;29.40;45.93
64078;BME280;51039;49.696;10.808;2022-07-23T10:34:41;98548.31;;;30.18;43.42
64078;BME280;51039;49.696;10.808;2022-07-23T10:37:22;98546.22;;;30.91;42.48
64078;BME280;51039;49.696;10.808;2022-07-23T10:42:38;98546.94;;;31.01;42.51
64078;BME280;51039;49.696;10.808;2022-07-23T10:45:21;98535.75;;;30.34;42.59
64078;BME280;51039;49.696;10.808;2022-07-23T10:47:47;98527.38;;;30.39;42.45
64078;BME280;51039;49.696;10.808;2022-07-23T10:50:17;98530.25;;;30.94;41.54
64078;BME280;51039;49.696;10.808;2022-07-23T10:57:56;98528.38;;;29.79;40.68
64078;BME280;51039;49.696;10.808;2022-07-23T11:00:22;98522.16;;;29.52;42.33
64078;BME280;51039;49.696;10.808;2022-07-23T11:02:50;98522.16;;;29.52;41.55
64078;BME280;51039;49.696;10.808;2022-07-23T11:05:18;98519.00;;;29.15;42.80
64078;BME280;51039;49.696;10.808;2022-07-23T11:10:35;98522.31;;;29.64;42.42
64078;BME280;51039;49.696;10.808;2022-07-23T11:24:06;98523.06;;;31.64;37.79
64078;BME280;51039;49.696;10.808;2022-07-23T11:26:40;98522.69;;;31.66;37.27
64078;BME280;51039;49.696;10.808;2022-07-23T11:32:18;98516.47;;;31.78;38.01
64078;BME280;51039;49.696;10.808;2022-07-23T11:34:49;98511.94;;;32.31;37.30
64078;BME280;51039;49.696;10.808;2022-07-23T11:37:37;98503.38;;;32.33;35.72
64078;BME280;51039;49.696;10.808;2022-07-23T11:40:06;98513.22;;;32.34;35.81
64078;BME280;51039;49.696;10.808;2022-07-23T11:42:37;98497.56;;;33.28;34.23
64078;BME280;51039;49.696;10.808;2022-07-23T11:45:07;98495.34;;;31.90;36.35
64078;BME280;51039;49.696;10.808;2022-07-23T11:47:33;98494.94;;;32.13;36.80
64078;BME280;51039;49.696;10.808;2022-07-23T11:49:59;98499.03;;;32.19;36.50
64078;BME280;51039;49.696;10.808;2022-07-23T11:52:31;98492.19;;;32.25;36.38
64078;BME280;51039;49.696;10.808;2022-07-23T11:54:58;98485.75;;;31.84;37.90
64078;BME280;51039;49.696;10.808;2022-07-23T11:57:26;98489.63;;;31.71;37.51
64078;BME280;51039;49.696;10.808;2022-07-23T11:59:58;98491.94;;;31.15;37.85
64078;BME280;51039;49.696;10.808;2022-07-23T12:02:43;98492.31;;;31.25;37.28
64078;BME280;51039;49.696;10.808;2022-07-23T12:05:22;98485.69;;;30.72;37.84
64078;BME280;51039;49.696;10.808;2022-07-23T12:07:53;98490.16;;;30.98;38.53
64078;BME280;51039;49.696;10.808;2022-07-23T12:10:21;98488.88;;;30.53;39.23
64078;BME280;51039;49.696;10.808;2022-07-23T12:12:54;98486.94;;;30.24;40.08
64078;BME280;51039;49.696;10.808;2022-07-23T12:15:25;98479.16;;;30.85;40.29
64078;BME280;51039;49.696;10.808;2022-07-23T12:18:04;98476.63;;;31.01;39.02
64078;BME280;51039;49.696;10.808;2022-07-23T12:20:34;98469.41;;;31.76;37.72
64078;BME280;51039;49.696;10.808;2022-07-23T12:23:04;98482.06;;;31.68;36.99
64078;BME280;51039;49.696;10.808;2022-07-23T12:25:32;98472.72;;;31.57;37.78
64078;BME280;51039;49.696;10.808;2022-07-23T12:30:28;98472.06;;;31.39;38.27
64078;BME280;51039;49.696;10.808;2022-07-23T12:32:56;98473.59;;;31.15;38.03
64078;BME280;51039;49.696;10.808;2022-07-23T12:35:23;98472.84;;;30.85;38.69
64078;BME280;51039;49.696;10.808;2022-07-23T12:37:59;98468.53;;;29.56;39.25
64078;BME280;51039;49.696;10.808;2022-07-23T12:40:26;98464.09;;;30.20;38.52
64078;BME280;51039;49.696;10.808;2022-07-23T12:45:28;98460.75;;;31.28;37.18
64078;BME280;51039;49.696;10.808;2022-07-23T12:48:06;98462.66;;;30.22;37.83
64078;BME280;51039;49.696;10.808;2022-07-23T12:53:03;98463.25;;;31.21;36.76
64078;BME280;51039;49.696;10.808;2022-07-23T12:55:33;98458.81;;;31.74;38.45
64078;BME280;51039;49.696;10.808;2022-07-23T12:58:07;98454.63;;;31.43;35.72
64078;BME280;51039;49.696;10.808;2022-07-23T13:00:48;98453.00;;;30.76;37.88
64078;BME280;51039;49.696;10.808;2022-07-23T13:06:01;98448.53;;;30.92;36.55
64078;BME280;51039;49.696;10.808;2022-07-23T13:08:29;98445.94;;;30.24;35.29
64078;BME280;51039;49.696;10.808;2022-07-23T13:10:55;98457.63;;;30.33;35.50
64078;BME280;51039;49.696;10.808;2022-07-23T13:13:22;98455.97;;;30.41;35.50
64078;BME280;51039;49.696;10.808;2022-07-23T13:15:50;98461.09;;;30.93;35.78
64078;BME280;51039;49.696;10.808;2022-07-23T13:18:16;98462.47;;;30.57;35.60
64078;BME280;51039;49.696;10.808;2022-07-23T13:20:42;98461.13;;;30.84;35.11
64078;BME280;51039;49.696;10.808;2022-07-23T13:23:08;98469.63;;;30.41;35.95
64078;BME280;51039;49.696;10.808;2022-07-23T13:25:34;98467.59;;;30.29;35.02
64078;BME280;51039;49.696;10.808;2022-07-23T13:27:59;98466.66;;;29.39;36.51
64078;BME280;51039;49.696;10.808;2022-07-23T13:30:25;98460.31;;;29.73;37.51
64078;BME280;51039;49.696;10.808;2022-07-23T13:32:51;98461.28;;;30.07;35.83
64078;BME280;51039;49.696;10.808;2022-07-23T13:35:16;98463.84;;;30.12;35.16
64078;BME280;51039;49.696;10.808;2022-07-23T13:37:41;98462.88;;;30.68;34.16